Time;durP1;ratioP1;P1;durP2;ratioP2;P2;SDS_P1;SDS_P2;PMS_P1;PMS_P2;Temp;Humidity;BMP_temperature;BMP_pressure;BME280_temperature;BME280_humidity;BME280_pressure;Samples;Min_cycle;Max_cycle;Signal;HPM_P1;HPM_P2
2023/04/09 00:01:49;;;;;;;0.90;0.90;;;;;;;;;;5061712;28;20241;-55
2023/04/09 00:04:15;;;;;;;0.90;0.90;;;;;;;;;;5058247;28;20199;-55
2023/04/09 00:06:41;;;;;;;0.90;0.90;;;;;;;;;;5061202;28;20194;-55
2023/04/09 00:09:07;;;;;;;0.90;0.90;;;;;;;;;;5045786;28;20231;-56
2023/04/09 00:11:33;;;;;;;0.90;0.90;;;;;;;;;;5061163;28;20287;-55
2023/04/09 00:13:59;;;;;;;1.00;1.00;;;;;;;;;;5059564;28;20196;-55
2023/04/09 00:16:25;;;;;;;0.90;0.90;;;;;;;;;;5061199;28;20184;-55
2023/04/09 00:18:51;;;;;;;0.80;0.80;;;;;;;;;;5057558;28;20196;-55
2023/04/09 00:21:16;;;;;;;1.00;1.00;;;;;;;;;;5061546;28;20191;-56
2023/04/09 00:23:42;;;;;;;0.90;0.90;;;;;;;;;;5054362;28;20279;-55
2023/04/09 00:26:09;;;;;;;1.03;1.03;;;;;;;;;;5056572;28;20223;-58
2023/04/09 00:28:35;;;;;;;0.90;0.90;;;;;;;;;;5057569;28;22272;-56
2023/04/09 00:31:01;;;;;;;1.00;1.00;;;;;;;;;;5057658;28;20207;-55
2023/04/09 00:33:27;;;;;;;1.00;1.00;;;;;;;;;;5057427;28;20617;-55
2023/04/09 00:35:53;;;;;;;1.00;1.00;;;;;;;;;;5060797;28;20309;-55
2023/04/09 00:38:19;;;;;;;1.00;1.00;;;;;;;;;;5056394;28;20226;-56
2023/04/09 00:40:48;;;;;;;0.90;0.90;;;;;;;;;;5059914;28;20324;-56
2023/04/09 00:43:15;;;;;;;0.90;0.90;;;;;;;;;;5056377;28;20188;-55
2023/04/09 00:45:40;;;;;;;1.03;1.03;;;;;;;;;;5061002;28;20184;-55
2023/04/09 00:48:07;;;;;;;1.10;1.10;;;;;;;;;;5058191;28;20195;-55
2023/04/09 00:50:33;;;;;;;0.97;0.97;;;;;;;;;;5057786;28;20233;-55
2023/04/09 00:52:59;;;;;;;0.90;0.90;;;;;;;;;;5072829;28;20212;-55
2023/04/09 00:55:25;;;;;;;1.00;1.00;;;;;;;;;;5057132;28;20190;-55
2023/04/09 00:57:51;;;;;;;1.00;1.00;;;;;;;;;;5072627;28;20583;-55
2023/04/09 01:00:17;;;;;;;0.80;0.80;;;;;;;;;;5055615;28;20196;-55
2023/04/09 01:02:43;;;;;;;0.70;0.70;;;;;;;;;;5053280;28;20401;-55
2023/04/09 01:05:10;;;;;;;0.90;0.90;;;;;;;;;;5069571;28;20605;-55
2023/04/09 01:07:53;;;;;;;0.70;0.70;;;;;;;;;;5052483;28;20477;-55
2023/04/09 01:10:34;;;;;;;0.60;0.60;;;;;;;;;;5036449;28;20419;-55
2023/04/09 01:13:07;;;;;;;0.90;0.90;;;;;;;;;;5069582;28;20804;-55
2023/04/09 01:15:35;;;;;;;1.00;1.00;;;;;;;;;;5054105;28;20765;-55
2023/04/09 01:18:04;;;;;;;0.75;0.75;;;;;;;;;;5047863;28;20557;-55
2023/04/09 01:20:40;;;;;;;0.80;0.80;;;;;;;;;;5055827;28;20537;-55
2023/04/09 01:23:19;;;;;;;0.70;0.70;;;;;;;;;;5034234;28;20420;-55
2023/04/09 01:25:51;;;;;;;1.00;1.00;;;;;;;;;;5054210;28;20395;-55
2023/04/09 01:28:23;;;;;;;0.90;0.90;;;;;;;;;;5052329;28;20402;-55
2023/04/09 01:30:49;;;;;;;0.90;0.90;;;;;;;;;;5069342;28;20406;-57
2023/04/09 01:33:16;;;;;;;0.90;0.90;;;;;;;;;;5054502;28;20405;-55
2023/04/09 01:35:42;;;;;;;0.80;0.80;;;;;;;;;;5054255;28;20448;-55
2023/04/09 01:38:08;;;;;;;1.00;1.00;;;;;;;;;;5048984;28;20513;-55
2023/04/09 01:40:34;;;;;;;0.80;0.80;;;;;;;;;;5049947;28;20911;-55
2023/04/09 01:43:00;;;;;;;1.10;1.10;;;;;;;;;;5049796;28;20886;-55
2023/04/09 01:45:26;;;;;;;1.10;1.10;;;;;;;;;;5053578;28;20904;-55
2023/04/09 01:47:52;;;;;;;1.20;1.20;;;;;;;;;;5067858;28;20230;-54
2023/04/09 01:50:18;;;;;;;0.97;0.97;;;;;;;;;;5070746;28;20179;-55
2023/04/09 01:52:44;;;;;;;1.00;1.00;;;;;;;;;;5053138;28;20226;-55
2023/04/09 01:55:10;;;;;;;0.80;0.80;;;;;;;;;;5054745;28;20187;-55
2023/04/09 01:57:36;;;;;;;0.80;0.80;;;;;;;;;;5056874;28;20302;-55
2023/04/09 02:00:02;;;;;;;0.90;0.90;;;;;;;;;;5068379;28;20231;-55
2023/04/09 02:02:32;;;;;;;1.10;1.10;;;;;;;;;;5057554;28;20188;-55
2023/04/09 02:04:58;;;;;;;1.00;1.00;;;;;;;;;;5053226;28;20192;-55
2023/04/09 02:07:27;;;;;;;1.00;1.00;;;;;;;;;;5055357;28;20210;-55
2023/04/09 02:09:53;;;;;;;1.00;1.00;;;;;;;;;;5055953;28;20240;-55
2023/04/09 02:12:20;;;;;;;1.00;1.00;;;;;;;;;;5065599;28;20744;-55
2023/04/09 02:14:46;;;;;;;0.93;0.93;;;;;;;;;;5047572;28;20208;-55
2023/04/09 02:17:12;;;;;;;1.00;1.00;;;;;;;;;;5067782;28;20209;-55
2023/04/09 02:19:42;;;;;;;0.90;0.90;;;;;;;;;;5034611;28;20718;-54
2023/04/09 02:22:08;;;;;;;0.83;0.83;;;;;;;;;;5054495;28;20187;-55
2023/04/09 02:24:35;;;;;;;1.00;1.00;;;;;;;;;;5051679;28;20279;-55
2023/04/09 02:27:01;;;;;;;1.10;1.10;;;;;;;;;;5049510;28;20200;-55
2023/04/09 02:29:27;;;;;;;1.00;1.00;;;;;;;;;;5053000;28;20191;-55
2023/04/09 02:31:54;;;;;;;0.90;0.90;;;;;;;;;;5054880;28;20770;-55
2023/04/09 02:34:20;;;;;;;0.80;0.80;;;;;;;;;;5055341;28;20564;-55
2023/04/09 02:36:46;;;;;;;0.90;0.90;;;;;;;;;;5054334;28;20203;-55
2023/04/09 02:39:12;;;;;;;0.90;0.90;;;;;;;;;;5053673;28;20187;-55
2023/04/09 02:41:38;;;;;;;0.90;0.90;;;;;;;;;;5054843;28;20583;-55
2023/04/09 02:44:04;;;;;;;0.90;0.90;;;;;;;;;;5048289;28;20438;-55
2023/04/09 02:46:29;;;;;;;0.97;0.97;;;;;;;;;;5052039;28;20175;-55
2023/04/09 02:48:55;;;;;;;0.93;0.93;;;;;;;;;;5054363;28;20195;-55
2023/04/09 02:51:21;;;;;;;0.90;0.90;;;;;;;;;;5053225;28;20211;-55
2023/04/09 02:53:47;;;;;;;0.90;0.90;;;;;;;;;;5050225;28;22310;-55
2023/04/09 02:56:13;;;;;;;1.00;1.00;;;;;;;;;;5057213;28;20571;-55
2023/04/09 02:58:39;;;;;;;0.93;0.93;;;;;;;;;;5059088;28;20192;-55
2023/04/09 03:01:05;;;;;;;0.90;0.90;;;;;;;;;;5059343;28;20194;-55
2023/04/09 03:03:31;;;;;;;0.93;0.93;;;;;;;;;;5055495;28;20418;-55
2023/04/09 03:05:57;;;;;;;1.00;1.00;;;;;;;;;;5056917;28;20267;-55
2023/04/09 03:08:23;;;;;;;1.50;1.50;;;;;;;;;;5059819;28;20349;-55
2023/04/09 03:10:49;;;;;;;1.50;1.50;;;;;;;;;;5056435;28;20192;-55
2023/04/09 03:13:15;;;;;;;1.33;1.33;;;;;;;;;;5058968;28;20255;-55
2023/04/09 03:15:41;;;;;;;1.30;1.30;;;;;;;;;;5055551;28;20188;-54
2023/04/09 03:18:07;;;;;;;1.30;1.30;;;;;;;;;;5060481;28;20183;-54
2023/04/09 03:20:33;;;;;;;1.07;1.07;;;;;;;;;;5057957;28;20187;-57
2023/04/09 03:22:59;;;;;;;1.30;1.30;;;;;;;;;;5058267;28;20187;-55
2023/04/09 03:25:25;;;;;;;1.30;1.30;;;;;;;;;;5057323;28;20551;-55
2023/04/09 03:27:51;;;;;;;1.00;1.00;;;;;;;;;;5059296;28;20176;-55
2023/04/09 03:30:17;;;;;;;1.50;1.50;;;;;;;;;;5057973;28;20191;-55
2023/04/09 03:32:43;;;;;;;1.40;1.40;;;;;;;;;;5056306;28;20781;-55
2023/04/09 03:35:09;;;;;;;1.00;1.00;;;;;;;;;;5055720;28;20629;-55
2023/04/09 03:37:35;;;;;;;1.00;1.00;;;;;;;;;;5058108;28;20184;-55
2023/04/09 03:40:01;;;;;;;0.90;0.90;;;;;;;;;;5056483;28;20187;-55
2023/04/09 03:42:27;;;;;;;1.00;1.00;;;;;;;;;;5058086;28;20261;-55
2023/04/09 03:44:53;;;;;;;0.90;0.90;;;;;;;;;;5055646;28;20234;-55
2023/04/09 03:47:19;;;;;;;0.90;0.90;;;;;;;;;;5055975;28;20275;-60
2023/04/09 03:49:45;;;;;;;1.00;1.00;;;;;;;;;;5057358;28;20282;-54
2023/04/09 03:52:11;;;;;;;0.90;0.90;;;;;;;;;;5038903;28;20216;-55
2023/04/09 03:54:37;;;;;;;1.10;1.10;;;;;;;;;;5053744;28;20184;-54
2023/04/09 03:57:03;;;;;;;1.20;1.20;;;;;;;;;;5052456;28;20201;-54
2023/04/09 03:59:29;;;;;;;0.87;0.87;;;;;;;;;;5056156;28;20283;-55
2023/04/09 04:01:55;;;;;;;1.20;1.20;;;;;;;;;;5057185;28;20193;-55
2023/04/09 04:04:21;;;;;;;1.00;1.00;;;;;;;;;;5055314;28;20199;-54
2023/04/09 04:06:47;;;;;;;0.90;0.90;;;;;;;;;;5055237;28;20296;-56
2023/04/09 04:09:13;;;;;;;1.03;1.03;;;;;;;;;;5056652;28;20242;-54
2023/04/09 04:11:39;;;;;;;0.80;0.80;;;;;;;;;;5052280;28;20432;-54
2023/04/09 04:14:05;;;;;;;0.75;0.75;;;;;;;;;;5055890;28;20444;-54
2023/04/09 04:16:31;;;;;;;0.80;0.80;;;;;;;;;;5055987;28;20427;-54
2023/04/09 04:18:57;;;;;;;0.77;0.77;;;;;;;;;;5045221;28;20439;-56
2023/04/09 04:21:23;;;;;;;0.80;0.80;;;;;;;;;;5053100;28;20482;-56
2023/04/09 04:23:49;;;;;;;0.77;0.77;;;;;;;;;;5055194;28;20435;-54
2023/04/09 04:26:15;;;;;;;0.90;0.90;;;;;;;;;;5052310;28;20436;-56
2023/04/09 04:28:41;;;;;;;0.90;0.90;;;;;;;;;;5052860;28;20412;-56
2023/04/09 04:31:10;;;;;;;0.73;0.73;;;;;;;;;;5058354;28;20254;-56
2023/04/09 04:33:36;;;;;;;0.93;0.93;;;;;;;;;;5052514;28;20195;-55
2023/04/09 04:36:06;;;;;;;1.50;1.50;;;;;;;;;;5056141;28;20695;-56
2023/04/09 04:38:32;;;;;;;1.10;1.10;;;;;;;;;;5054537;28;20180;-56
2023/04/09 04:40:58;;;;;;;0.90;0.90;;;;;;;;;;5055436;28;20223;-56
2023/04/09 04:43:24;;;;;;;0.80;0.80;;;;;;;;;;5034861;28;20458;-56
2023/04/09 04:45:50;;;;;;;0.90;0.90;;;;;;;;;;5054352;28;20467;-54
2023/04/09 04:48:16;;;;;;;1.30;1.30;;;;;;;;;;5055939;28;20190;-55
2023/04/09 04:50:42;;;;;;;1.00;1.00;;;;;;;;;;5048605;28;20790;-56
2023/04/09 04:53:08;;;;;;;0.70;0.70;;;;;;;;;;5056250;28;20902;-56
2023/04/09 04:55:38;;;;;;;0.90;0.90;;;;;;;;;;5054157;28;20404;-55
2023/04/09 04:58:04;;;;;;;1.37;1.37;;;;;;;;;;5056984;28;20426;-56
2023/04/09 05:00:30;;;;;;;0.90;0.90;;;;;;;;;;5049447;28;20426;-55
2023/04/09 05:02:56;;;;;;;1.40;1.40;;;;;;;;;;5053105;28;20411;-55
2023/04/09 05:05:22;;;;;;;1.30;1.30;;;;;;;;;;5066153;28;20361;-55
2023/04/09 05:07:48;;;;;;;0.90;0.90;;;;;;;;;;5054967;28;20216;-56
2023/04/09 05:10:14;;;;;;;1.00;1.00;;;;;;;;;;5055229;28;20192;-56
2023/04/09 05:12:40;;;;;;;1.07;1.07;;;;;;;;;;5052376;28;20433;-55
2023/04/09 05:15:06;;;;;;;1.30;1.30;;;;;;;;;;5051739;28;20195;-56
2023/04/09 05:17:32;;;;;;;2.47;2.37;;;;;;;;;;5054135;28;20195;-56
2023/04/09 05:19:58;;;;;;;1.50;1.50;;;;;;;;;;5055431;28;20184;-56
2023/04/09 05:22:24;;;;;;;1.00;1.00;;;;;;;;;;5040038;28;20544;-55
2023/04/09 05:24:50;;;;;;;1.80;1.70;;;;;;;;;;5055424;28;20649;-55
2023/04/09 05:27:18;;;;;;;1.40;1.40;;;;;;;;;;5051950;28;20999;-56
2023/04/09 05:29:44;;;;;;;1.40;1.40;;;;;;;;;;5054993;28;20252;-56
2023/04/09 05:32:10;;;;;;;1.53;1.53;;;;;;;;;;5051292;28;20200;-56
2023/04/09 05:34:36;;;;;;;1.20;1.20;;;;;;;;;;5056819;28;20195;-57
2023/04/09 05:37:02;;;;;;;1.20;1.20;;;;;;;;;;5053409;28;20210;-57
2023/04/09 05:39:28;;;;;;;1.20;1.20;;;;;;;;;;5058222;28;20574;-56
2023/04/09 05:41:55;;;;;;;1.20;1.20;;;;;;;;;;5055913;28;20717;-56
2023/04/09 05:44:21;;;;;;;1.10;1.10;;;;;;;;;;5055955;28;20268;-56
2023/04/09 05:46:47;;;;;;;1.30;1.30;;;;;;;;;;5056250;28;20217;-56
2023/04/09 05:49:12;;;;;;;1.40;1.40;;;;;;;;;;5054036;28;20191;-56
2023/04/09 05:51:38;;;;;;;1.40;1.40;;;;;;;;;;5058020;28;20215;-56
2023/04/09 05:54:04;;;;;;;1.30;1.30;;;;;;;;;;5054016;28;20195;-56
2023/04/09 05:56:31;;;;;;;1.10;1.10;;;;;;;;;;5054700;28;20184;-56
2023/04/09 05:58:56;;;;;;;1.10;1.10;;;;;;;;;;5052574;28;20644;-56
2023/04/09 06:01:22;;;;;;;1.10;1.10;;;;;;;;;;5054562;28;20195;-56
2023/04/09 06:03:48;;;;;;;1.63;1.63;;;;;;;;;;5050458;28;20199;-56
2023/04/09 06:06:14;;;;;;;1.30;1.30;;;;;;;;;;5054704;28;20192;-55
2023/04/09 06:08:40;;;;;;;1.30;1.30;;;;;;;;;;5054337;28;20219;-56
2023/04/09 06:11:10;;;;;;;1.30;1.30;;;;;;;;;;5053346;28;20299;-56
2023/04/09 06:13:36;;;;;;;1.30;1.30;;;;;;;;;;5052669;28;20573;-56
2023/04/09 06:16:06;;;;;;;1.37;1.37;;;;;;;;;;5051898;28;20283;-55
2023/04/09 06:18:32;;;;;;;1.50;1.50;;;;;;;;;;5052638;28;20188;-55
2023/04/09 06:21:01;;;;;;;1.20;1.20;;;;;;;;;;5051586;28;20809;-55
2023/04/09 06:23:27;;;;;;;1.40;1.40;;;;;;;;;;5050695;28;20186;-56
2023/04/09 06:25:53;;;;;;;1.40;1.40;;;;;;;;;;5053635;28;20197;-56
2023/04/09 06:28:20;;;;;;;1.50;1.50;;;;;;;;;;5054514;28;20188;-55
2023/04/09 06:30:46;;;;;;;1.40;1.40;;;;;;;;;;5052901;28;20192;-55
2023/04/09 06:33:12;;;;;;;1.40;1.40;;;;;;;;;;5052551;28;20195;-56
2023/04/09 06:35:38;;;;;;;1.30;1.30;;;;;;;;;;5068478;28;20241;-55
2023/04/09 06:38:04;;;;;;;1.20;1.20;;;;;;;;;;5051165;28;20230;-57
2023/04/09 06:40:30;;;;;;;1.40;1.40;;;;;;;;;;5056488;28;20187;-55
2023/04/09 06:42:56;;;;;;;1.30;1.30;;;;;;;;;;5051193;28;20221;-55
2023/04/09 06:45:22;;;;;;;1.40;1.40;;;;;;;;;;5055013;28;20195;-55
2023/04/09 06:47:48;;;;;;;1.67;1.67;;;;;;;;;;5053163;28;20529;-54
2023/04/09 06:50:14;;;;;;;1.53;1.53;;;;;;;;;;5053163;28;20278;-55
2023/04/09 06:52:40;;;;;;;1.40;1.40;;;;;;;;;;5054253;28;20562;-55
2023/04/09 06:55:06;;;;;;;1.40;1.40;;;;;;;;;;5052287;28;20181;-56
2023/04/09 06:57:32;;;;;;;1.40;1.40;;;;;;;;;;5052542;28;20192;-56
2023/04/09 06:59:58;;;;;;;1.30;1.30;;;;;;;;;;5053049;28;20663;-55
2023/04/09 07:02:24;;;;;;;1.50;1.50;;;;;;;;;;5054323;28;20525;-55
2023/04/09 07:04:50;;;;;;;1.40;1.40;;;;;;;;;;5053011;28;20634;-55
2023/04/09 07:07:16;;;;;;;1.50;1.50;;;;;;;;;;5054308;28;20207;-55
2023/04/09 07:09:42;;;;;;;1.40;1.40;;;;;;;;;;5053716;28;20715;-55
2023/04/09 07:12:08;;;;;;;1.50;1.50;;;;;;;;;;5054141;28;20907;-55
2023/04/09 07:14:34;;;;;;;1.50;1.50;;;;;;;;;;5054288;28;20183;-56
2023/04/09 07:17:00;;;;;;;1.40;1.40;;;;;;;;;;5052243;28;20175;-56
2023/04/09 07:19:26;;;;;;;1.40;1.40;;;;;;;;;;5053974;28;20183;-55
2023/04/09 07:21:52;;;;;;;1.60;1.60;;;;;;;;;;5051936;28;20665;-55
2023/04/09 07:24:18;;;;;;;1.57;1.57;;;;;;;;;;5051073;28;20195;-55
2023/04/09 07:26:44;;;;;;;1.50;1.50;;;;;;;;;;5051759;28;20260;-56
2023/04/09 07:29:10;;;;;;;1.50;1.50;;;;;;;;;;5050108;28;20260;-55
2023/04/09 07:31:36;;;;;;;1.47;1.47;;;;;;;;;;5048962;28;20291;-55
2023/04/09 07:34:02;;;;;;;1.40;1.40;;;;;;;;;;5050560;28;20196;-55
2023/04/09 07:36:28;;;;;;;1.23;1.23;;;;;;;;;;5056851;28;20192;-55
2023/04/09 07:38:54;;;;;;;1.40;1.40;;;;;;;;;;5053630;28;20191;-55
2023/04/09 07:41:20;;;;;;;1.50;1.50;;;;;;;;;;5055484;28;21077;-55
2023/04/09 07:43:46;;;;;;;1.40;1.40;;;;;;;;;;5053245;28;20192;-55
2023/04/09 07:46:17;;;;;;;1.60;1.60;;;;;;;;;;5053429;28;20195;-54
2023/04/09 07:48:43;;;;;;;1.53;1.53;;;;;;;;;;5053116;28;20196;-55
2023/04/09 07:51:10;;;;;;;1.30;1.30;;;;;;;;;;5059136;28;20702;-54
2023/04/09 07:53:36;;;;;;;1.50;1.50;;;;;;;;;;5052417;28;20901;-54
2023/04/09 07:56:02;;;;;;;2.00;1.90;;;;;;;;;;5054716;28;20272;-55
2023/04/09 07:58:28;;;;;;;1.10;1.10;;;;;;;;;;5058131;28;20271;-55
2023/04/09 08:00:54;;;;;;;1.60;1.60;;;;;;;;;;5051938;28;20196;-55
2023/04/09 08:03:21;;;;;;;1.20;1.20;;;;;;;;;;5043905;28;20195;-55
2023/04/09 08:05:47;;;;;;;1.20;1.20;;;;;;;;;;5043192;28;20271;-54
2023/04/09 08:08:13;;;;;;;1.20;1.20;;;;;;;;;;5056216;28;20307;-54
2023/04/09 08:10:41;;;;;;;1.10;1.10;;;;;;;;;;5055618;28;20229;-54
2023/04/09 08:13:07;;;;;;;1.10;1.10;;;;;;;;;;5054058;28;20218;-55
2023/04/09 08:15:33;;;;;;;1.20;1.20;;;;;;;;;;5055539;28;20559;-54
2023/04/09 08:18:01;;;;;;;1.20;1.20;;;;;;;;;;5057926;28;20176;-54
2023/04/09 08:20:28;;;;;;;0.83;0.83;;;;;;;;;;5054106;28;20614;-55
2023/04/09 08:22:54;;;;;;;0.80;0.80;;;;;;;;;;5055306;28;20188;-55
2023/04/09 08:25:21;;;;;;;0.90;0.90;;;;;;;;;;5057596;28;20263;-54
2023/04/09 08:27:47;;;;;;;1.03;1.03;;;;;;;;;;5056432;28;20586;-54
2023/04/09 08:30:13;;;;;;;1.20;1.20;;;;;;;;;;5054116;28;20196;-55
2023/04/09 08:32:39;;;;;;;0.90;0.90;;;;;;;;;;5051131;28;20207;-55
2023/04/09 08:35:05;;;;;;;0.70;0.70;;;;;;;;;;5053671;28;20192;-55
2023/04/09 08:37:32;;;;;;;0.90;0.90;;;;;;;;;;5053838;28;20267;-55
2023/04/09 08:39:58;;;;;;;0.80;0.80;;;;;;;;;;5056434;28;20306;-54
2023/04/09 08:42:24;;;;;;;0.70;0.70;;;;;;;;;;5054987;28;20188;-55
2023/04/09 08:44:50;;;;;;;0.70;0.70;;;;;;;;;;5055946;28;20188;-55
2023/04/09 08:47:16;;;;;;;0.70;0.70;;;;;;;;;;5059896;28;20257;-55
2023/04/09 08:49:42;;;;;;;0.90;0.90;;;;;;;;;;5058850;28;20449;-55
2023/04/09 08:52:08;;;;;;;0.80;0.80;;;;;;;;;;5054542;28;20199;-56
2023/04/09 08:54:34;;;;;;;0.70;0.70;;;;;;;;;;5054247;28;20703;-55
2023/04/09 08:57:00;;;;;;;0.80;0.80;;;;;;;;;;5056400;28;20275;-55
2023/04/09 08:59:26;;;;;;;1.10;1.10;;;;;;;;;;5067506;28;20271;-55
2023/04/09 09:02:10;;;;;;;1.10;1.10;;;;;;;;;;5055738;28;20598;-55
2023/04/09 09:04:44;;;;;;;0.90;0.90;;;;;;;;;;5061242;28;20187;-55
2023/04/09 09:07:10;;;;;;;1.10;1.10;;;;;;;;;;5061210;28;20223;-55
2023/04/09 09:09:40;;;;;;;0.90;0.90;;;;;;;;;;5053505;28;20266;-55
2023/04/09 09:12:06;;;;;;;0.80;0.80;;;;;;;;;;5028063;28;20301;-55
2023/04/09 09:14:33;;;;;;;0.80;0.80;;;;;;;;;;5067372;28;20660;-54
2023/04/09 09:17:02;;;;;;;1.00;1.00;;;;;;;;;;5058594;28;20663;-55
2023/04/09 09:19:29;;;;;;;1.00;1.00;;;;;;;;;;5050534;28;20700;-55
2023/04/09 09:21:56;;;;;;;0.90;0.90;;;;;;;;;;5056873;28;20438;-55
2023/04/09 09:24:22;;;;;;;0.73;0.73;;;;;;;;;;5054854;28;20223;-55
2023/04/09 09:26:48;;;;;;;0.80;0.80;;;;;;;;;;5055298;28;20264;-55
2023/04/09 09:29:14;;;;;;;1.00;1.00;;;;;;;;;;5058055;28;20849;-55
2023/04/09 09:31:48;;;;;;;1.10;1.10;;;;;;;;;;5058031;28;20599;-55
2023/04/09 09:34:14;;;;;;;1.00;1.00;;;;;;;;;;5036416;28;20661;-56
2023/04/09 09:36:40;;;;;;;1.20;1.20;;;;;;;;;;5057032;28;20226;-56
2023/04/09 09:39:10;;;;;;;1.05;1.05;;;;;;;;;;5054825;28;20586;-56
2023/04/09 09:41:37;;;;;;;0.70;0.70;;;;;;;;;;5050077;28;20256;-56
2023/04/09 09:44:05;;;;;;;0.80;0.80;;;;;;;;;;5052998;28;20188;-56
2023/04/09 09:46:33;;;;;;;1.00;1.00;;;;;;;;;;5054808;28;20187;-56
2023/04/09 09:48:59;;;;;;;1.20;1.20;;;;;;;;;;5055401;28;20224;-56
2023/04/09 09:51:28;;;;;;;0.90;0.90;;;;;;;;;;5052873;28;20208;-56
2023/04/09 09:53:55;;;;;;;1.00;1.00;;;;;;;;;;5054832;28;20175;-56
2023/04/09 09:56:25;;;;;;;1.10;1.10;;;;;;;;;;5055429;28;20804;-56
2023/04/09 09:59:06;;;;;;;1.00;1.00;;;;;;;;;;5054901;28;20424;-56
2023/04/09 10:01:33;;;;;;;1.00;1.00;;;;;;;;;;5057454;28;20195;-56
2023/04/09 10:04:00;;;;;;;1.00;1.00;;;;;;;;;;5054807;28;20191;-56
2023/04/09 10:06:26;;;;;;;1.00;1.00;;;;;;;;;;5069930;28;20219;-56
2023/04/09 10:08:52;;;;;;;0.90;0.90;;;;;;;;;;5054449;28;20659;-53
2023/04/09 10:11:19;;;;;;;1.00;1.00;;;;;;;;;;5042651;28;20291;-56
2023/04/09 10:13:54;;;;;;;0.95;0.95;;;;;;;;;;5072498;28;20190;-56
2023/04/09 10:16:21;;;;;;;1.00;1.00;;;;;;;;;;5068208;28;20196;-56
2023/04/09 10:18:47;;;;;;;0.95;0.95;;;;;;;;;;5054566;28;20459;-55
2023/04/09 10:21:20;;;;;;;0.90;0.90;;;;;;;;;;5054822;28;20809;-56
2023/04/09 10:23:48;;;;;;;0.90;0.90;;;;;;;;;;5043294;28;20192;-56
2023/04/09 10:26:14;;;;;;;0.90;0.90;;;;;;;;;;5055282;28;20180;-56
2023/04/09 10:28:40;;;;;;;0.90;0.90;;;;;;;;;;5058332;28;20659;-56
2023/04/09 10:31:06;;;;;;;1.40;1.40;;;;;;;;;;5056439;28;20191;-56
2023/04/09 10:33:32;;;;;;;0.82;0.82;;;;;;;;;;5054786;28;20204;-56
2023/04/09 10:36:03;;;;;;;0.80;0.80;;;;;;;;;;5054314;28;20278;-56
2023/04/09 10:38:33;;;;;;;0.88;0.88;;;;;;;;;;5051698;28;20266;-56
2023/04/09 10:40:59;;;;;;;0.80;0.80;;;;;;;;;;5053407;28;20235;-56
2023/04/09 10:43:25;;;;;;;0.80;0.80;;;;;;;;;;5068477;28;20184;-56
2023/04/09 10:45:53;;;;;;;0.80;0.80;;;;;;;;;;5053749;28;20175;-56
2023/04/09 10:48:19;;;;;;;0.80;0.80;;;;;;;;;;5053188;28;20187;-56
2023/04/09 10:50:45;;;;;;;0.80;0.80;;;;;;;;;;5053736;28;20630;-56
2023/04/09 10:53:24;;;;;;;0.70;0.70;;;;;;;;;;5055777;28;20199;-56
2023/04/09 10:55:52;;;;;;;0.70;0.70;;;;;;;;;;5056825;28;20179;-57
2023/04/09 10:58:18;;;;;;;0.70;0.70;;;;;;;;;;5056566;28;20184;-57
2023/04/09 11:00:45;;;;;;;0.70;0.70;;;;;;;;;;5055146;28;20264;-57
2023/04/09 11:03:24;;;;;;;0.70;0.70;;;;;;;;;;5055662;28;20232;-56
2023/04/09 11:06:08;;;;;;;0.80;0.80;;;;;;;;;;5054274;28;20552;-57
2023/04/09 11:08:34;;;;;;;0.75;0.75;;;;;;;;;;5055864;28;20330;-56
2023/04/09 11:11:00;;;;;;;0.73;0.73;;;;;;;;;;5054675;28;20674;-57
2023/04/09 11:13:26;;;;;;;0.80;0.80;;;;;;;;;;5057600;28;20184;-57
2023/04/09 11:15:53;;;;;;;0.70;0.70;;;;;;;;;;5054897;28;20275;-56
2023/04/09 11:18:20;;;;;;;0.73;0.73;;;;;;;;;;5058515;28;20285;-56
2023/04/09 11:20:45;;;;;;;0.70;0.70;;;;;;;;;;5059533;28;20184;-56
2023/04/09 11:23:12;;;;;;;0.70;0.70;;;;;;;;;;5060935;28;20192;-57
2023/04/09 11:25:38;;;;;;;0.70;0.70;;;;;;;;;;5060271;28;20187;-56
2023/04/09 11:28:04;;;;;;;0.75;0.75;;;;;;;;;;5057829;28;20187;-56
2023/04/09 11:30:33;;;;;;;0.70;0.70;;;;;;;;;;5060841;28;20224;-56
2023/04/09 11:32:59;;;;;;;0.75;0.75;;;;;;;;;;5055535;28;20265;-56
2023/04/09 11:35:25;;;;;;;0.70;0.70;;;;;;;;;;5057015;28;20212;-57
2023/04/09 11:37:51;;;;;;;0.80;0.80;;;;;;;;;;5058247;28;20179;-57
2023/04/09 11:40:17;;;;;;;0.77;0.77;;;;;;;;;;5057172;28;20215;-57
2023/04/09 11:42:44;;;;;;;0.77;0.77;;;;;;;;;;5056852;28;20195;-56
2023/04/09 11:45:10;;;;;;;0.70;0.70;;;;;;;;;;5059097;28;20188;-56
2023/04/09 11:47:36;;;;;;;0.80;0.80;;;;;;;;;;5058355;28;20582;-57
2023/04/09 11:50:02;;;;;;;0.77;0.77;;;;;;;;;;5056193;28;20222;-56
2023/04/09 11:52:30;;;;;;;0.70;0.70;;;;;;;;;;5059238;28;20211;-56
2023/04/09 11:55:00;;;;;;;0.70;0.70;;;;;;;;;;5056630;28;20775;-56
2023/04/09 11:57:35;;;;;;;0.70;0.70;;;;;;;;;;5058072;28;20180;-56
2023/04/09 12:00:05;;;;;;;0.75;0.75;;;;;;;;;;5055777;28;20188;-56
2023/04/09 12:02:31;;;;;;;0.70;0.70;;;;;;;;;;5057776;28;20187;-57
2023/04/09 12:05:02;;;;;;;0.70;0.70;;;;;;;;;;5070433;28;20540;-56
2023/04/09 12:07:31;;;;;;;0.73;0.73;;;;;;;;;;5072413;28;20715;-56
2023/04/09 12:09:57;;;;;;;0.77;0.77;;;;;;;;;;5056180;28;20224;-56
2023/04/09 12:12:23;;;;;;;0.80;0.80;;;;;;;;;;5072771;28;20609;-56
2023/04/09 12:14:50;;;;;;;0.90;0.90;;;;;;;;;;5070981;28;20404;-57
2023/04/09 12:17:16;;;;;;;0.70;0.70;;;;;;;;;;5060491;28;20180;-57
2023/04/09 12:19:42;;;;;;;0.70;0.70;;;;;;;;;;5038847;28;20215;-57
2023/04/09 12:22:08;;;;;;;0.73;0.73;;;;;;;;;;5055520;28;20326;-57
2023/04/09 12:24:34;;;;;;;0.80;0.80;;;;;;;;;;5056979;28;20618;-57
2023/04/09 12:27:00;;;;;;;0.80;0.80;;;;;;;;;;5056015;28;20212;-57
2023/04/09 12:29:28;;;;;;;0.80;0.80;;;;;;;;;;5044174;28;20273;-57
2023/04/09 12:31:54;;;;;;;0.80;0.80;;;;;;;;;;5055892;28;20299;-55
2023/04/09 12:34:20;;;;;;;0.80;0.80;;;;;;;;;;5056665;28;20635;-58
2023/04/09 12:36:47;;;;;;;0.80;0.80;;;;;;;;;;5057169;28;20191;-57
2023/04/09 12:39:13;;;;;;;0.80;0.80;;;;;;;;;;5059266;28;20195;-56
2023/04/09 12:41:39;;;;;;;0.80;0.80;;;;;;;;;;5058331;28;20573;-56
2023/04/09 12:44:06;;;;;;;0.80;0.80;;;;;;;;;;5059034;28;20233;-58
2023/04/09 12:46:32;;;;;;;0.80;0.80;;;;;;;;;;5059389;28;20675;-57
2023/04/09 12:48:58;;;;;;;0.80;0.80;;;;;;;;;;5034263;28;20191;-57
2023/04/09 12:51:24;;;;;;;0.80;0.80;;;;;;;;;;5040763;28;20200;-57
2023/04/09 12:53:50;;;;;;;0.80;0.80;;;;;;;;;;5056497;28;20664;-57
2023/04/09 12:56:16;;;;;;;0.80;0.80;;;;;;;;;;5072300;28;20195;-58
2023/04/09 12:58:42;;;;;;;0.80;0.80;;;;;;;;;;5054002;28;20288;-57
2023/04/09 13:01:08;;;;;;;0.80;0.80;;;;;;;;;;5058421;28;20180;-56
2023/04/09 13:03:34;;;;;;;0.80;0.80;;;;;;;;;;5072514;28;20190;-56
2023/04/09 13:06:00;;;;;;;0.80;0.80;;;;;;;;;;5056972;28;20188;-58
2023/04/09 13:08:26;;;;;;;0.80;0.80;;;;;;;;;;5056456;28;20224;-58
2023/04/09 13:10:52;;;;;;;0.90;0.90;;;;;;;;;;5058072;28;20187;-58
2023/04/09 13:13:18;;;;;;;0.80;0.80;;;;;;;;;;5057425;28;20298;-61
2023/04/09 13:15:45;;;;;;;0.80;0.80;;;;;;;;;;5042305;28;20667;-58
2023/04/09 13:18:11;;;;;;;0.80;0.80;;;;;;;;;;5043693;28;20738;-57
2023/04/09 13:20:37;;;;;;;0.80;0.80;;;;;;;;;;5056926;28;20244;-58
2023/04/09 13:23:03;;;;;;;0.80;0.80;;;;;;;;;;5057355;28;20200;-57
2023/04/09 13:25:29;;;;;;;0.80;0.80;;;;;;;;;;5050365;28;20240;-57
2023/04/09 13:27:55;;;;;;;0.80;0.80;;;;;;;;;;5055850;28;20315;-57
2023/04/09 13:30:21;;;;;;;0.80;0.80;;;;;;;;;;5054080;28;20279;-57
2023/04/09 13:32:47;;;;;;;0.80;0.80;;;;;;;;;;5055490;28;20263;-57
2023/04/09 13:35:13;;;;;;;0.80;0.80;;;;;;;;;;5054289;28;20238;-57
2023/04/09 13:37:39;;;;;;;0.80;0.80;;;;;;;;;;5055943;28;20241;-57
2023/04/09 13:40:07;;;;;;;0.80;0.80;;;;;;;;;;5049536;28;20183;-57
2023/04/09 13:42:33;;;;;;;0.80;0.80;;;;;;;;;;5053211;28;20183;-57
2023/04/09 13:44:59;;;;;;;0.80;0.80;;;;;;;;;;5055328;28;20245;-57
2023/04/09 13:47:25;;;;;;;0.90;0.90;;;;;;;;;;5054445;28;20344;-57
2023/04/09 13:49:52;;;;;;;0.80;0.80;;;;;;;;;;5058268;28;20618;-57
2023/04/09 13:52:18;;;;;;;0.85;0.85;;;;;;;;;;5054301;28;20215;-57
2023/04/09 13:54:43;;;;;;;0.90;0.90;;;;;;;;;;5056770;28;20227;-57
2023/04/09 13:57:10;;;;;;;0.90;0.90;;;;;;;;;;5052542;28;20226;-57
2023/04/09 13:59:37;;;;;;;0.90;0.90;;;;;;;;;;5054007;28;20184;-57
2023/04/09 14:02:03;;;;;;;0.90;0.90;;;;;;;;;;5057842;28;20200;-57
2023/04/09 14:04:29;;;;;;;0.82;0.82;;;;;;;;;;5053434;28;20370;-57
2023/04/09 14:06:56;;;;;;;0.80;0.80;;;;;;;;;;5055152;28;20549;-57
2023/04/09 14:09:22;;;;;;;0.80;0.80;;;;;;;;;;5054010;28;20659;-57
2023/04/09 14:11:48;;;;;;;0.80;0.80;;;;;;;;;;5054139;28;20312;-57
2023/04/09 14:14:14;;;;;;;0.90;0.90;;;;;;;;;;5049536;28;20454;-57
2023/04/09 14:16:40;;;;;;;0.80;0.80;;;;;;;;;;5056027;28;20241;-57
2023/04/09 14:19:06;;;;;;;0.90;0.90;;;;;;;;;;5036728;28;20188;-57
2023/04/09 14:21:33;;;;;;;0.80;0.80;;;;;;;;;;5055561;28;20202;-57
2023/04/09 14:23:59;;;;;;;0.90;0.90;;;;;;;;;;5035210;28;20676;-57
2023/04/09 14:26:25;;;;;;;1.00;1.00;;;;;;;;;;5053128;28;20233;-57
2023/04/09 14:28:51;;;;;;;0.90;0.90;;;;;;;;;;5057028;28;20183;-56
2023/04/09 14:31:20;;;;;;;0.90;0.90;;;;;;;;;;5051755;28;20881;-57
2023/04/09 14:33:46;;;;;;;0.90;0.90;;;;;;;;;;5058143;28;20230;-57
2023/04/09 14:36:12;;;;;;;0.90;0.90;;;;;;;;;;5053676;28;20428;-57
2023/04/09 14:38:38;;;;;;;0.93;0.93;;;;;;;;;;5053930;28;20184;-57
2023/04/09 14:41:04;;;;;;;0.90;0.90;;;;;;;;;;5053339;28;20180;-57